Time;durP1;ratioP1;P1;durP2;ratioP2;P2;SDS_P1;SDS_P2;PMS_P1;PMS_P2;Temp;Humidity;BMP_temperature;BMP_pressure;BME280_temperature;BME280_humidity;BME280_pressure;Samples;Min_cycle;Max_cycle;Signal;HPM_P1;HPM_P2
2022/10/23 00:00:03;;;;;;;11.13;7.35;;;;;;;11.01;100.00;100210.81;6328634;28;19927;-77
2022/10/23 00:03:04;;;;;;;14.00;7.78;;;;;;;11.01;100.00;100212.59;6334978;28;20050;-77
2022/10/23 00:06:06;;;;;;;15.10;7.70;;;;;;;11.02;100.00;100217.75;6372167;28;20039;-78
2022/10/23 00:09:11;;;;;;;13.77;7.50;;;;;;;10.84;100.00;100217.06;6372131;28;20050;-78
2022/10/23 00:12:12;;;;;;;13.00;8.02;;;;;;;10.96;100.00;100225.94;6353709;28;20032;-78
2022/10/23 00:15:15;;;;;;;12.52;8.20;;;;;;;10.97;100.00;100237.22;6353744;28;20420;-78
2022/10/23 00:18:15;;;;;;;11.75;8.50;;;;;;;11.06;100.00;100247.13;6353736;28;20050;-78
2022/10/23 00:21:17;;;;;;;13.38;7.97;;;;;;;11.07;100.00;100246.19;6353608;28;20047;-78
2022/10/23 00:24:17;;;;;;;11.80;7.65;;;;;;;11.15;100.00;100246.56;6336495;28;20452;-78
2022/10/23 00:27:18;;;;;;;14.27;8.02;;;;;;;11.12;100.00;100251.13;6336486;28;20047;-78
2022/10/23 00:30:19;;;;;;;12.07;7.28;;;;;;;11.16;100.00;100260.44;6373215;27;20035;-78
2022/10/23 00:33:20;;;;;;;11.63;6.90;;;;;;;11.04;100.00;100254.22;6341045;27;20051;-77
2022/10/23 00:36:21;;;;;;;14.65;7.82;;;;;;;10.94;100.00;100263.53;6358280;27;20410;-78
2022/10/23 00:39:21;;;;;;;16.90;8.35;;;;;;;10.92;100.00;100273.22;6358203;27;20061;-78
2022/10/23 00:42:22;;;;;;;14.80;8.43;;;;;;;10.80;100.00;100262.56;6357805;27;20460;-78
2022/10/23 00:45:26;;;;;;;13.70;7.97;;;;;;;10.92;100.00;100279.28;6358175;27;20482;-77
2022/10/23 00:48:27;;;;;;;14.35;8.10;;;;;;;10.93;100.00;100272.28;6357980;27;20041;-78
2022/10/23 00:51:34;;;;;;;16.65;7.40;;;;;;;10.88;100.00;100267.34;6357905;27;20047;-77
2022/10/23 00:54:38;;;;;;;14.95;7.82;;;;;;;10.93;100.00;100267.88;6340779;27;20047;-77
2022/10/23 00:57:42;;;;;;;13.68;8.02;;;;;;;10.88;100.00;100278.59;6376164;27;20035;-78
2022/10/23 01:00:51;;;;;;;13.02;7.85;;;;;;;10.90;100.00;100281.13;6375953;27;20043;-77
2022/10/23 01:03:52;;;;;;;15.63;7.97;;;;;;;10.81;100.00;100281.66;6357857;27;20046;-77
2022/10/23 01:07:02;;;;;;;11.32;8.20;;;;;;;10.84;100.00;100281.50;6357773;27;20041;-77
2022/10/23 01:10:13;;;;;;;10.82;7.53;;;;;;;10.78;100.00;100281.84;6357559;27;20509;-79
2022/10/23 01:13:27;;;;;;;10.68;7.15;;;;;;;10.80;100.00;100280.00;6357157;27;20100;-78
2022/10/23 01:16:51;;;;;;;16.00;7.80;;;;;;;10.84;100.00;100276.28;6340324;27;20047;-78
2022/10/23 01:20:10;;;;;;;11.32;7.22;;;;;;;10.81;100.00;100266.00;6357210;27;20094;-77
2022/10/23 01:23:37;;;;;;;13.77;7.70;;;;;;;10.71;100.00;100281.38;6357204;27;20043;-77
2022/10/23 01:26:56;;;;;;;12.70;6.90;;;;;;;10.76;100.00;100284.53;6327548;27;20058;-77
2022/10/23 01:30:12;;;;;;;11.32;7.50;;;;;;;10.76;100.00;100278.50;6357011;27;20095;-78
2022/10/23 01:33:20;;;;;;;12.40;7.80;;;;;;;10.77;100.00;100285.38;6375193;27;20416;-78
2022/10/23 01:36:25;;;;;;;13.57;7.55;;;;;;;10.78;100.00;100287.91;6375145;27;20050;-77
2022/10/23 01:39:35;;;;;;;12.48;8.60;;;;;;;10.84;100.00;100295.38;6375220;27;20491;-78
2022/10/23 01:42:40;;;;;;;14.00;7.88;;;;;;;10.80;100.00;100312.16;6338843;27;20043;-77
2022/10/23 01:45:46;;;;;;;12.32;7.70;;;;;;;10.72;100.00;100309.13;6356739;27;20059;-78
2022/10/23 01:48:51;;;;;;;11.10;7.35;;;;;;;10.68;100.00;100318.91;6356624;27;20477;-78
2022/10/23 01:51:58;;;;;;;13.68;7.03;;;;;;;10.68;100.00;100323.28;6339293;27;20043;-77
2022/10/23 01:55:00;;;;;;;11.23;6.80;;;;;;;10.67;100.00;100324.22;6356417;27;20046;-77
2022/10/23 01:58:01;;;;;;;;;;;;;;;10.60;100.00;100328.09;6356907;27;20402;-78
2022/10/23 02:01:05;;;;;;;10.13;5.90;;;;;;;10.65;100.00;100320.88;6371161;27;19970;-77
2022/10/23 02:04:08;;;;;;;8.45;6.00;;;;;;;10.59;100.00;100326.44;6365763;27;20035;-77
2022/10/23 02:07:09;;;;;;;12.23;6.63;;;;;;;10.60;100.00;100315.88;6365074;27;20387;-77
2022/10/23 02:10:11;;;;;;;10.55;6.55;;;;;;;10.47;100.00;100314.91;6331988;28;20044;-78
2022/10/23 02:13:28;;;;;;;;;;;;;;;10.49;100.00;100331.31;6332423;27;20036;-78
2022/10/23 02:16:45;;;;;;;9.50;5.97;;;;;;;10.48;100.00;100332.25;6357015;27;20423;-78
2022/10/23 02:20:12;;;;;;;12.80;6.88;;;;;;;10.33;100.00;100325.28;6375041;27;20042;-78
2022/10/23 02:23:26;;;;;;;10.75;6.70;;;;;;;10.33;100.00;100333.94;6375032;27;20054;-78
2022/10/23 02:26:35;;;;;;;9.70;6.30;;;;;;;10.27;100.00;100340.31;6374789;27;20050;-78
2022/10/23 02:29:42;;;;;;;11.75;7.38;;;;;;;10.21;100.00;100339.78;6356738;27;20096;-78
2022/10/23 02:32:53;;;;;;;11.60;7.30;;;;;;;10.23;100.00;100351.00;6352130;27;20050;-79
2022/10/23 02:35:53;;;;;;;16.40;6.85;;;;;;;10.24;100.00;100356.13;6331139;28;20525;-78
2022/10/23 02:38:54;;;;;;;11.68;6.88;;;;;;;10.27;100.00;100366.41;6330719;28;20067;-78
2022/10/23 02:42:06;;;;;;;13.18;7.05;;;;;;;10.17;100.00;100370.44;6330654;28;20138;-79
2022/10/23 02:45:32;;;;;;;15.55;7.65;;;;;;;10.17;100.00;100383.47;6330670;28;20040;-78
2022/10/23 02:48:41;;;;;;;10.80;6.57;;;;;;;10.12;100.00;100375.03;6330707;28;20105;-78
2022/10/23 02:51:51;;;;;;;12.38;7.20;;;;;;;10.15;100.00;100377.50;6330691;28;20127;-78
2022/10/23 02:55:07;;;;;;;13.63;7.05;;;;;;;10.08;100.00;100382.19;6330063;28;20043;-78
2022/10/23 02:58:27;;;;;;;10.02;6.20;;;;;;;10.10;100.00;100384.72;6348521;28;20039;-78
2022/10/23 03:01:50;;;;;;;10.88;6.75;;;;;;;10.03;100.00;100383.38;6330309;28;20063;-79
2022/10/23 03:04:54;;;;;;;11.40;6.70;;;;;;;10.01;100.00;100391.28;6330359;28;20036;-77
2022/10/23 03:07:55;;;;;;;9.73;5.97;;;;;;;9.88;100.00;100395.44;6348403;27;20039;-77
2022/10/23 03:10:56;;;;;;;13.98;6.50;;;;;;;9.92;100.00;100402.16;6365480;27;20047;-77
2022/10/23 03:13:57;;;;;;;11.43;7.18;;;;;;;9.94;100.00;100405.53;6354525;27;20140;-78
2022/10/23 03:16:58;;;;;;;11.73;6.35;;;;;;;9.95;100.00;100416.84;6366403;27;20142;-77
2022/10/23 03:19:58;;;;;;;10.90;6.90;;;;;;;9.97;100.00;100428.84;6329181;28;20047;-78
2022/10/23 03:22:59;;;;;;;12.25;6.85;;;;;;;9.95;100.00;100420.28;6329028;28;20071;-78
2022/10/23 03:26:00;;;;;;;12.43;7.60;;;;;;;9.98;100.00;100440.94;6347353;28;20039;-78
2022/10/23 03:29:01;;;;;;;10.35;7.72;;;;;;;9.96;100.00;100440.19;6330562;27;20051;-78
2022/10/23 03:32:01;;;;;;;13.23;7.57;;;;;;;10.02;100.00;100449.47;6372881;27;20039;-78
2022/10/23 03:35:03;;;;;;;10.43;7.07;;;;;;;9.92;100.00;100443.88;6354210;27;20043;-78
2022/10/23 03:38:03;;;;;;;10.90;7.15;;;;;;;10.03;100.00;100453.78;6354263;27;20059;-78
2022/10/23 03:41:04;;;;;;;10.70;6.25;;;;;;;10.00;100.00;100453.91;6372546;27;20464;-78
2022/10/23 03:44:05;;;;;;;12.05;7.38;;;;;;;10.00;100.00;100462.56;6354129;28;20039;-78
2022/10/23 03:47:06;;;;;;;12.15;7.32;;;;;;;9.98;100.00;100453.16;6363486;28;20074;-78
2022/10/23 03:50:08;;;;;;;11.02;7.80;;;;;;;10.06;100.00;100458.81;6328717;28;20062;-78
2022/10/23 03:53:09;;;;;;;11.98;7.43;;;;;;;9.98;100.00;100456.59;6346766;28;20035;-77
2022/10/23 03:56:09;;;;;;;13.73;7.80;;;;;;;9.98;100.00;100459.19;6346784;28;20032;-78
2022/10/23 03:59:15;;;;;;;11.32;7.63;;;;;;;10.04;100.00;100458.03;6328827;28;20048;-78
2022/10/23 04:02:15;;;;;;;14.70;7.50;;;;;;;10.01;100.00;100451.22;6328535;28;20103;-78
2022/10/23 04:05:16;;;;;;;10.85;7.28;;;;;;;10.02;100.00;100462.50;6331740;28;20039;-77
2022/10/23 04:08:17;;;;;;;13.55;6.68;;;;;;;10.08;100.00;100472.59;6351856;28;20043;-77
2022/10/23 04:11:18;;;;;;;10.68;7.55;;;;;;;10.06;100.00;100474.44;6333513;28;20446;-78
2022/10/23 04:14:19;;;;;;;10.48;7.10;;;;;;;10.01;100.00;100472.09;6333483;28;20044;-78
2022/10/23 04:17:19;;;;;;;10.02;6.88;;;;;;;10.00;100.00;100459.97;6334845;27;20095;-79
2022/10/23 04:20:28;;;;;;;13.20;6.88;;;;;;;10.00;100.00;100459.97;6360220;27;20067;-79
2022/10/23 04:23:29;;;;;;;14.68;7.47;;;;;;;9.99;100.00;100463.50;6358601;27;20552;-77
2022/10/23 04:26:30;;;;;;;14.55;7.63;;;;;;;9.91;100.00;100468.28;6358930;27;20139;-78
2022/10/23 04:29:31;;;;;;;13.95;6.57;;;;;;;9.92;100.00;100469.09;6358783;27;20043;-78
2022/10/23 04:32:32;;;;;;;11.73;7.47;;;;;;;10.00;100.00;100467.78;6358406;27;20417;-78
2022/10/23 04:35:32;;;;;;;10.27;6.70;;;;;;;9.98;100.00;100464.41;6358556;27;20035;-77
2022/10/23 04:38:35;;;;;;;12.55;7.15;;;;;;;9.88;100.00;100468.41;6376757;27;20118;-77
2022/10/23 04:41:38;;;;;;;11.13;7.18;;;;;;;9.83;100.00;100463.44;6358114;27;20051;-78
2022/10/23 04:44:39;;;;;;;12.48;7.03;;;;;;;9.90;100.00;100463.97;6341252;27;20047;-78
2022/10/23 04:47:40;;;;;;;12.27;7.22;;;;;;;9.87;100.00;100464.97;6358467;27;20050;-79
2022/10/23 04:50:40;;;;;;;12.88;7.35;;;;;;;9.85;100.00;100456.38;6376528;27;20063;-79
2022/10/23 04:53:41;;;;;;;14.55;7.65;;;;;;;9.80;100.00;100452.31;6376225;27;20058;-79
2022/10/23 04:56:44;;;;;;;12.07;6.82;;;;;;;9.90;100.00;100456.16;6376359;27;20400;-78
2022/10/23 04:59:45;;;;;;;15.85;7.97;;;;;;;9.87;100.00;100459.75;6358085;27;20437;-78
2022/10/23 05:02:46;;;;;;;14.60;8.88;;;;;;;9.79;100.00;100464.53;6357921;27;20050;-78
2022/10/23 05:05:54;;;;;;;23.70;8.63;;;;;;;9.72;100.00;100464.91;6358468;27;20035;-78
2022/10/23 05:08:55;;;;;;;16.10;9.05;;;;;;;9.69;100.00;100477.16;6348643;28;20067;-78
2022/10/23 05:11:55;;;;;;;15.80;7.68;;;;;;;9.64;100.00;100480.94;6350373;28;20044;-78
2022/10/23 05:14:56;;;;;;;11.18;7.30;;;;;;;9.56;100.00;100491.75;6332123;28;20375;-77
2022/10/23 05:18:01;;;;;;;16.63;7.93;;;;;;;9.54;100.00;100495.34;6331509;28;20039;-77
2022/10/23 05:21:07;;;;;;;13.48;7.93;;;;;;;9.58;100.00;100494.28;6332053;28;20035;-78
2022/10/23 05:24:12;;;;;;;12.93;7.65;;;;;;;9.59;100.00;100488.97;6350177;28;20055;-78
2022/10/23 05:27:15;;;;;;;12.55;7.13;;;;;;;9.53;100.00;100497.09;6331776;28;20192;-78
2022/10/23 05:30:16;;;;;;;13.25;8.00;;;;;;;9.53;100.00;100499.69;6331935;28;20048;-77
2022/10/23 05:33:17;;;;;;;12.05;6.72;;;;;;;9.47;100.00;100497.41;6333379;27;20552;-78
2022/10/23 05:36:17;;;;;;;16.05;8.18;;;;;;;9.50;100.00;100512.91;6356376;27;20035;-78
2022/10/23 05:39:18;;;;;;;19.25;7.25;;;;;;;9.55;100.00;100525.69;6332522;28;20096;-78
2022/10/23 05:42:19;;;;;;;16.02;8.20;;;;;;;9.50;100.00;100525.91;6350375;28;20079;-78
2022/10/23 05:45:22;;;;;;;11.60;7.47;;;;;;;9.48;100.00;100531.19;6348078;27;20046;-77
2022/10/23 05:48:23;;;;;;;13.32;7.65;;;;;;;9.59;100.00;100525.44;6357505;27;20079;-78
2022/10/23 05:51:24;;;;;;;21.63;8.75;;;;;;;9.61;100.00;100539.25;6357263;27;20505;-78
2022/10/23 05:54:25;;;;;;;11.82;7.57;;;;;;;9.71;100.00;100544.00;6357122;27;20066;-77
2022/10/23 05:57:25;;;;;;;12.63;7.63;;;;;;;9.72;100.00;100543.09;6357373;27;20447;-78
2022/10/23 06:00:26;;;;;;;12.77;6.47;;;;;;;9.72;100.00;100550.91;6373292;27;20040;-77
2022/10/23 06:03:27;;;;;;;14.38;8.20;;;;;;;9.75;100.00;100559.41;6331299;28;20104;-78
2022/10/23 06:06:28;;;;;;;10.50;7.53;;;;;;;9.77;100.00;100561.97;6331599;28;20040;-78
2022/10/23 06:09:29;;;;;;;25.48;7.88;;;;;;;9.79;100.00;100570.53;6314439;28;20050;-77
2022/10/23 06:12:31;;;;;;;12.82;7.00;;;;;;;9.81;100.00;100569.53;6313863;28;20079;-78
2022/10/23 06:15:32;;;;;;;13.35;7.75;;;;;;;9.79;100.00;100583.56;6355748;27;20063;-78
2022/10/23 06:18:32;;;;;;;9.90;6.63;;;;;;;9.85;100.00;100586.72;6339161;27;20051;-78
2022/10/23 06:21:35;;;;;;;12.80;7.78;;;;;;;9.92;100.00;100582.03;6332123;27;20457;-77
2022/10/23 06:24:36;;;;;;;12.82;6.97;;;;;;;9.81;100.00;100585.19;6321001;28;20055;-77
2022/10/23 06:27:37;;;;;;;14.10;7.80;;;;;;;9.93;100.00;100594.16;6346290;27;20172;-77
2022/10/23 06:30:38;;;;;;;13.20;8.80;;;;;;;9.93;100.00;100607.19;6374016;27;20061;-77
2022/10/23 06:33:39;;;;;;;11.40;6.82;;;;;;;10.02;100.00;100603.28;6338467;27;20054;-77
2022/10/23 06:36:40;;;;;;;14.60;7.65;;;;;;;10.06;100.00;100607.41;6367787;27;20040;-77
2022/10/23 06:39:41;;;;;;;16.35;8.05;;;;;;;10.13;100.00;100605.34;6330456;28;20076;-77
2022/10/23 06:42:41;;;;;;;15.65;7.80;;;;;;;10.22;100.00;100610.94;6337209;27;20099;-77
2022/10/23 06:45:44;;;;;;;12.15;6.90;;;;;;;10.13;100.00;100606.22;6337818;27;20123;-78
2022/10/23 06:48:45;;;;;;;20.67;7.35;;;;;;;10.19;100.00;100611.13;6355467;27;20043;-77
2022/10/23 06:51:46;;;;;;;19.33;7.40;;;;;;;10.25;100.00;100612.53;6355140;27;20083;-78
2022/10/23 06:54:46;;;;;;;19.25;7.65;;;;;;;10.10;100.00;100611.56;6355170;27;20482;-77
2022/10/23 06:57:47;;;;;;;13.57;8.65;;;;;;;10.12;100.00;100599.28;6373397;27;20066;-77
2022/10/23 07:00:48;;;;;;;19.17;8.20;;;;;;;10.13;100.00;100611.41;6373380;27;20402;-77
2022/10/23 07:03:48;;;;;;;11.43;6.78;;;;;;;10.16;100.00;100607.81;6337916;27;20129;-77
2022/10/23 07:06:49;;;;;;;13.50;8.18;;;;;;;10.07;100.00;100617.78;6354725;27;20123;-79
2022/10/23 07:09:50;;;;;;;11.55;7.68;;;;;;;10.12;100.00;100624.53;6354709;27;20039;-78
2022/10/23 07:12:51;;;;;;;10.45;6.32;;;;;;;10.17;100.00;100623.38;6354642;27;20136;-77
2022/10/23 07:15:51;;;;;;;12.77;7.38;;;;;;;10.20;100.00;100630.22;6372830;27;20120;-77
2022/10/23 07:18:58;;;;;;;13.38;8.13;;;;;;;10.28;100.00;100644.53;6354605;27;20074;-77
2022/10/23 07:22:02;;;;;;;16.45;7.25;;;;;;;10.36;100.00;100643.34;6372899;27;20501;-78
2022/10/23 07:25:03;;;;;;;10.85;7.65;;;;;;;10.26;100.00;100640.31;6354303;27;20039;-77
2022/10/23 07:28:04;;;;;;;9.85;7.75;;;;;;;10.16;100.00;100639.09;6373584;27;20047;-77
2022/10/23 07:31:05;;;;;;;15.65;8.60;;;;;;;10.34;100.00;100637.38;6372683;27;20039;-78
2022/10/23 07:34:05;;;;;;;17.23;7.82;;;;;;;10.21;100.00;100639.69;6354342;27;20047;-78
2022/10/23 07:37:06;;;;;;;17.35;7.82;;;;;;;10.33;100.00;100631.28;6337193;27;20470;-77
2022/10/23 07:40:07;;;;;;;12.30;8.02;;;;;;;10.44;100.00;100631.59;6372268;27;20040;-77
2022/10/23 07:43:08;;;;;;;13.43;8.10;;;;;;;10.46;100.00;100627.16;6372210;27;20059;-77
2022/10/23 07:46:09;;;;;;;10.50;7.80;;;;;;;10.51;100.00;100631.28;6354037;28;20059;-77
2022/10/23 07:49:10;;;;;;;25.67;8.20;;;;;;;10.46;100.00;100631.53;6354395;28;20085;-77
2022/10/23 07:52:11;;;;;;;12.88;7.50;;;;;;;10.45;100.00;100632.44;6337077;28;20043;-78
2022/10/23 07:55:12;;;;;;;14.60;8.77;;;;;;;10.45;100.00;100635.03;6354073;28;20035;-77
2022/10/23 07:58:12;;;;;;;13.10;7.90;;;;;;;10.44;100.00;100629.00;6372508;28;20046;-77
2022/10/23 08:01:35;;;;;;;9.60;7.00;;;;;;;10.42;100.00;100640.44;6353988;28;20055;-77
2022/10/23 08:04:36;;;;;;;14.57;7.32;;;;;;;10.42;100.00;100649.09;6336860;28;20047;-77
2022/10/23 08:07:37;;;;;;;10.35;7.03;;;;;;;10.51;100.00;100639.94;6336974;28;20134;-76
2022/10/23 08:10:40;;;;;;;11.00;7.53;;;;;;;10.57;100.00;100642.25;6336922;28;20070;-77
2022/10/23 08:13:41;;;;;;;15.57;8.80;;;;;;;10.68;100.00;100652.97;6372097;28;20039;-77
2022/10/23 08:16:41;;;;;;;13.20;7.72;;;;;;;10.57;100.00;100654.47;6353873;28;20036;-78
2022/10/23 08:19:45;;;;;;;12.38;8.23;;;;;;;10.67;100.00;100658.28;6354007;28;20078;-78
2022/10/23 08:22:48;;;;;;;15.63;7.82;;;;;;;10.67;100.00;100656.50;6353672;28;20047;-78
2022/10/23 08:25:56;;;;;;;15.63;8.15;;;;;;;10.85;100.00;100659.94;6353520;28;20422;-78
2022/10/23 08:28:59;;;;;;;17.30;10.63;;;;;;;10.82;100.00;100657.47;6353642;28;20043;-78
2022/10/23 08:32:00;;;;;;;15.40;10.00;;;;;;;10.88;100.00;100666.75;6353668;28;20527;-78
2022/10/23 08:35:01;;;;;;;14.15;8.65;;;;;;;10.92;100.00;100672.66;6353705;28;20035;-78
2022/10/23 08:38:03;;;;;;;20.20;9.45;;;;;;;10.88;100.00;100669.38;6336231;28;20498;-78
2022/10/23 08:41:05;;;;;;;22.40;8.90;;;;;;;10.96;100.00;100682.03;6371893;27;20562;-78
2022/10/23 08:44:30;;;;;;;17.60;10.00;;;;;;;11.02;100.00;100682.53;6336374;28;20143;-78
2022/10/23 08:47:54;;;;;;;16.73;9.02;;;;;;;11.14;100.00;100685.41;6371761;28;20437;-77
2022/10/23 08:50:59;;;;;;;14.23;8.30;;;;;;;11.21;100.00;100692.00;6372500;27;20039;-78
2022/10/23 08:54:06;;;;;;;18.98;10.38;;;;;;;11.15;100.00;100692.34;6357939;27;20039;-77
2022/10/23 08:57:13;;;;;;;22.67;10.38;;;;;;;11.37;100.00;100702.50;6358022;27;20087;-78
2022/10/23 09:00:15;;;;;;;19.13;10.90;;;;;;;11.41;100.00;100698.78;6357965;27;20035;-78
2022/10/23 09:03:17;;;;;;;;;;;;;;;11.38;100.00;100702.38;6341258;27;20418;-78
2022/10/23 09:06:39;;;;;;;17.88;10.30;;;;;;;11.59;100.00;100684.72;6357923;27;19923;-78
2022/10/23 09:10:00;;;;;;;25.40;9.48;;;;;;;11.60;100.00;100696.84;6357864;27;20050;-78
2022/10/23 09:13:15;;;;;;;15.82;10.43;;;;;;;11.69;100.00;100693.72;6340606;27;20099;-78
2022/10/23 09:16:25;;;;;;;17.65;9.27;;;;;;;11.66;100.00;100690.44;6357577;27;20050;-78
2022/10/23 09:19:28;;;;;;;16.48;9.75;;;;;;;11.68;100.00;100689.41;6357642;27;20068;-78
2022/10/23 09:22:28;;;;;;;16.40;9.10;;;;;;;11.54;100.00;100693.72;6357599;27;20051;-79
2022/10/23 09:25:34;;;;;;;16.67;10.10;;;;;;;11.63;100.00;100703.66;6340271;27;20051;-78
2022/10/23 09:28:50;;;;;;;19.63;9.73;;;;;;;11.73;100.00;100699.59;6375473;27;20088;-78
2022/10/23 09:32:11;;;;;;;17.30;9.98;;;;;;;11.87;100.00;100699.69;6357042;27;20067;-80
2022/10/23 09:35:23;;;;;;;22.58;11.27;;;;;;;11.96;100.00;100698.34;6356596;27;20059;-78
2022/10/23 09:38:32;;;;;;;17.20;10.13;;;;;;;12.01;100.00;100701.56;6356784;27;20051;-77
2022/10/23 09:41:38;;;;;;;16.35;10.25;;;;;;;11.93;100.00;100701.16;6357032;27;20055;-77
2022/10/23 09:44:47;;;;;;;14.88;9.85;;;;;;;12.00;100.00;100699.84;6375079;27;20040;-77
2022/10/23 09:47:48;;;;;;;16.42;9.30;;;;;;;12.08;100.00;100697.66;6339726;27;20081;-77
2022/10/23 09:51:01;;;;;;;13.48;9.77;;;;;;;12.17;100.00;100706.78;6356691;27;20035;-77
2022/10/23 09:54:01;;;;;;;;;;;;;;;12.14;100.00;100706.09;6356966;27;20048;-77
2022/10/23 09:57:18;;;;;;;14.98;8.40;;;;;;;12.13;100.00;100705.25;6339311;27;20010;-77
2022/10/23 10:00:25;;;;;;;15.80;8.82;;;;;;;12.06;100.00;100706.53;6356585;27;20126;-78
2022/10/23 10:03:25;;;;;;;14.68;8.15;;;;;;;12.02;100.00;100689.31;6355964;27;20053;-77
2022/10/23 10:06:34;;;;;;;15.77;8.93;;;;;;;12.08;100.00;100707.28;6374750;27;20043;-77
2022/10/23 10:09:37;;;;;;;14.82;9.65;;;;;;;12.14;100.00;100706.09;6356167;27;20046;-77
2022/10/23 10:12:56;;;;;;;14.10;8.48;;;;;;;11.89;100.00;100692.63;6339150;27;20046;-77
2022/10/23 10:16:02;;;;;;;15.18;8.70;;;;;;;12.10;100.00;100716.72;6355980;27;20070;-77
2022/10/23 10:19:18;;;;;;;12.35;8.48;;;;;;;12.25;100.00;100716.78;6356117;27;20043;-77
2022/10/23 10:22:38;;;;;;;13.35;8.18;;;;;;;12.23;100.00;100695.09;6338743;27;20054;-77
2022/10/23 10:25:55;;;;;;;15.45;9.68;;;;;;;12.25;100.00;100699.31;6339790;27;20055;-77
2022/10/23 10:29:29;;;;;;;14.90;7.97;;;;;;;12.29;100.00;100700.84;6374310;27;20150;-76
2022/10/23 10:32:45;;;;;;;15.25;7.70;;;;;;;12.19;100.00;100697.06;6373909;27;20043;-77
2022/10/23 10:36:00;;;;;;;15.15;9.32;;;;;;;12.16;100.00;100694.59;6355760;27;20047;-76
2022/10/23 10:39:04;;;;;;;16.52;8.43;;;;;;;12.11;100.00;100699.28;6355398;27;20051;-77
2022/10/23 10:42:35;;;;;;;12.70;8.38;;;;;;;12.08;100.00;100696.81;6338260;27;20075;-77
2022/10/23 10:45:59;;;;;;;14.80;8.57;;;;;;;12.14;100.00;100683.38;6355381;27;20084;-77
2022/10/23 10:49:22;;;;;;;17.20;9.02;;;;;;;12.18;100.00;100684.91;6338028;27;20047;-76
2022/10/23 10:52:26;;;;;;;14.32;8.70;;;;;;;12.16;100.00;100681.53;6355282;27;20039;-75
2022/10/23 10:55:34;;;;;;;14.02;8.65;;;;;;;12.12;100.00;100693.09;6355258;27;20043;-78
2022/10/23 10:58:45;;;;;;;17.73;9.32;;;;;;;12.21;100.00;100687.34;6354829;27;20142;-78
2022/10/23 11:01:46;;;;;;;25.25;14.52;;;;;;;12.27;100.00;100697.47;6337894;27;20554;-78
2022/10/23 11:04:55;;;;;;;18.70;9.90;;;;;;;12.12;100.00;100689.66;6354934;27;20043;-78
2022/10/23 11:08:20;;;;;;;14.30;9.00;;;;;;;12.08;100.00;100697.66;6373127;27;20070;-78
2022/10/23 11:11:32;;;;;;;21.33;11.57;;;;;;;12.17;100.00;100678.00;6372981;27;20513;-77
2022/10/23 11:14:33;;;;;;;;;;;;;;;12.33;100.00;100674.47;6354655;27;20035;-79
2022/10/23 11:17:42;;;;;;;14.90;9.02;;;;;;;12.44;100.00;100664.22;6337486;27;19965;-78
2022/10/23 11:21:08;;;;;;;15.68;8.43;;;;;;;12.28;100.00;100659.03;6354146;27;20051;-77
2022/10/23 11:24:30;;;;;;;17.25;8.93;;;;;;;12.44;100.00;100664.22;6354387;27;20410;-78
2022/10/23 11:27:47;;;;;;;15.10;9.27;;;;;;;12.40;100.00;100649.63;6372688;27;20114;-77
2022/10/23 11:31:13;;;;;;;15.13;7.65;;;;;;;12.52;100.00;100650.66;6372641;27;20049;-78
2022/10/23 11:34:30;;;;;;;14.48;8.48;;;;;;;12.42;100.00;100656.47;6372554;27;20042;-77
2022/10/23 11:37:32;;;;;;;12.70;7.70;;;;;;;12.40;100.00;100642.63;6354227;27;20482;-77
2022/10/23 11:40:33;;;;;;;16.80;9.43;;;;;;;12.47;100.00;100643.94;6354333;27;20054;-77
2022/10/23 11:43:46;;;;;;;19.10;11.17;;;;;;;12.55;100.00;100642.66;6354230;27;20039;-77
2022/10/23 11:46:58;;;;;;;14.98;9.45;;;;;;;12.50;100.00;100643.75;6354311;27;20071;-77
2022/10/23 11:50:08;;;;;;;15.60;8.20;;;;;;;12.44;100.00;100641.50;6372435;28;20376;-78
2022/10/23 11:53:32;;;;;;;16.20;7.80;;;;;;;12.49;100.00;100651.69;6372187;28;20039;-77
2022/10/23 11:56:35;;;;;;;14.88;8.13;;;;;;;12.42;100.00;100643.38;6353971;28;20043;-77
2022/10/23 11:59:52;;;;;;;13.43;7.57;;;;;;;12.46;100.00;100641.44;6353933;28;20043;-74
2022/10/23 12:02:54;;;;;;;13.52;8.70;;;;;;;12.58;100.00;100637.22;6371845;28;20043;-77
2022/10/23 12:06:05;;;;;;;16.02;9.27;;;;;;;12.56;100.00;100637.31;6372151;28;20506;-78
2022/10/23 12:09:23;;;;;;;13.90;8.70;;;;;;;12.57;100.00;100640.78;6319381;28;20142;-76
2022/10/23 12:12:27;;;;;;;20.13;9.48;;;;;;;12.73;100.00;100640.69;6336833;28;20422;-75
2022/10/23 12:15:29;;;;;;;16.80;9.15;;;;;;;12.79;100.00;100633.31;6363936;28;20043;-76
2022/10/23 12:18:30;;;;;;;19.83;9.73;;;;;;;12.73;100.00;100633.69;6328659;28;20451;-79
2022/10/23 12:21:34;;;;;;;13.68;8.15;;;;;;;12.76;100.00;100627.41;6332299;28;20076;-78
2022/10/23 12:24:56;;;;;;;16.13;8.07;;;;;;;12.75;100.00;100625.75;6372193;27;20047;-79
2022/10/23 12:28:23;;;;;;;14.07;7.55;;;;;;;12.73;100.00;100619.75;6377120;27;20049;-77
2022/10/23 12:31:41;;;;;;;15.38;9.13;;;;;;;12.81;100.00;100628.00;6341382;27;20047;-78
2022/10/23 12:34:57;;;;;;;89.00;40.47;;;;;;;12.78;100.00;100634.22;6376951;27;20415;-79
2022/10/23 12:38:19;;;;;;;15.20;9.20;;;;;;;12.68;100.00;100625.25;6360548;27;20050;-79
2022/10/23 12:41:28;;;;;;;12.98;8.60;;;;;;;12.55;100.00;100617.31;6351430;28;20059;-78
2022/10/23 12:44:29;;;;;;;14.05;8.73;;;;;;;12.72;100.00;100621.50;6316676;28;20055;-77
2022/10/23 12:47:30;;;;;;;15.45;8.15;;;;;;;12.63;100.00;100612.44;6351369;27;20127;-78
2022/10/23 12:50:32;;;;;;;13.77;8.43;;;;;;;12.61;100.00;100603.00;6351006;28;20514;-78
2022/10/23 12:53:33;;;;;;;16.13;9.00;;;;;;;12.72;100.00;100611.03;6350425;27;20455;-77
2022/10/23 12:56:35;;;;;;;13.55;8.00;;;;;;;12.73;100.00;100604.88;6376330;27;20071;-78
2022/10/23 12:59:41;;;;;;;16.38;8.38;;;;;;;12.76;100.00;100612.53;6357936;27;20046;-77
2022/10/23 13:02:42;;;;;;;15.30;9.57;;;;;;;12.78;100.00;100604.59;6376106;27;20464;-78
2022/10/23 13:05:45;;;;;;;18.58;10.80;;;;;;;12.80;100.00;100603.56;6357933;27;20067;-78
2022/10/23 13:08:50;;;;;;;13.75;8.68;;;;;;;12.81;100.00;100609.66;6362905;27;20043;-77
2022/10/23 13:11:51;;;;;;;13.80;9.15;;;;;;;12.84;100.00;100580.66;6332387;28;20158;-78
2022/10/23 13:15:09;;;;;;;15.77;8.63;;;;;;;12.82;100.00;100598.22;6332088;28;20043;-77
2022/10/23 13:18:17;;;;;;;14.32;8.25;;;;;;;12.79;100.00;100593.19;6315117;28;20075;-78
2022/10/23 13:21:23;;;;;;;19.50;9.38;;;;;;;12.69;100.00;100582.44;6314938;28;20048;-78
2022/10/23 13:24:28;;;;;;;15.38;8.70;;;;;;;12.76;100.00;100590.75;6332258;28;20039;-77
2022/10/23 13:27:29;;;;;;;10.95;8.02;;;;;;;12.75;100.00;100597.78;6331683;28;20492;-77
2022/10/23 13:30:33;;;;;;;26.67;14.00;;;;;;;12.68;100.00;100594.69;6332018;28;20046;-77
2022/10/23 13:33:51;;;;;;;14.85;9.68;;;;;;;12.67;100.00;100598.22;6331642;28;20162;-77
2022/10/23 13:36:59;;;;;;;13.05;7.95;;;;;;;12.68;100.00;100594.69;6332580;27;20441;-77
2022/10/23 13:40:03;;;;;;;14.52;8.32;;;;;;;12.70;100.00;100595.44;6375034;27;20039;-78
2022/10/23 13:43:13;;;;;;;15.73;8.57;;;;;;;12.71;100.00;100596.28;6356918;27;20055;-78
2022/10/23 13:46:14;;;;;;;16.33;8.32;;;;;;;12.81;100.00;100597.41;6339679;27;20055;-79
2022/10/23 13:49:15;;;;;;;19.92;8.43;;;;;;;12.77;100.00;100595.91;6356762;27;20490;-77
2022/10/23 13:52:22;;;;;;;13.38;8.02;;;;;;;12.87;100.00;100591.78;6357021;27;20039;-78
2022/10/23 13:55:25;;;;;;;13.18;7.82;;;;;;;12.94;100.00;100599.25;6356599;27;20043;-77
2022/10/23 13:58:26;;;;;;;;;;;;;;;12.89;100.00;100592.53;6375293;27;20035;-78
2022/10/23 14:01:29;;;;;;;12.93;7.85;;;;;;;12.83;100.00;100590.28;6339551;27;20343;-77
2022/10/23 14:04:31;;;;;;;16.63;9.02;;;;;;;12.86;100.00;100582.22;6339568;27;20387;-77
2022/10/23 14:07:32;;;;;;;15.18;8.05;;;;;;;12.98;100.00;100571.94;6339320;27;20078;-77